createdAt,value
2023-04-15T00:02:22.470Z,96709.13
2023-04-15T00:04:50.055Z,96708.91
2023-04-15T00:07:18.064Z,96702.84
2023-04-15T00:09:46.197Z,96714.81
2023-04-15T00:12:13.799Z,96717.44
2023-04-15T00:14:41.117Z,96718.09
2023-04-15T00:17:08.739Z,96716.16
2023-04-15T00:19:36.016Z,96723.06
2023-04-15T00:22:03.629Z,96730.09
2023-04-15T00:24:31.748Z,96734.50
2023-04-15T00:27:00.024Z,96739.72
2023-04-15T00:29:27.297Z,96740.56
2023-04-15T00:31:54.851Z,96742.19
2023-04-15T00:34:22.076Z,96752.00
2023-04-15T00:36:51.777Z,96756.94
2023-04-15T00:39:19.186Z,96753.91
2023-04-15T00:41:47.050Z,96759.03
2023-04-15T00:44:14.510Z,96748.16
2023-04-15T00:46:44.339Z,96755.06
2023-04-15T00:49:13.185Z,96752.75
2023-04-15T00:51:40.746Z,96746.69
2023-04-15T00:54:08.144Z,96758.94
2023-04-15T00:56:39.997Z,96769.84
2023-04-15T00:59:08.869Z,96776.72
2023-04-15T01:01:37.490Z,96766.41
2023-04-15T01:04:06.153Z,96770.81
2023-04-15T01:06:34.209Z,96769.84
2023-04-15T01:09:02.426Z,96763.94
2023-04-15T01:11:34.438Z,96765.19
2023-04-15T01:14:02.892Z,96766.63
2023-04-15T01:16:31.703Z,96762.38
2023-04-15T01:18:59.398Z,96763.19
2023-04-15T01:21:27.280Z,96764.28
2023-04-15T01:23:57.197Z,96759.22
2023-04-15T01:26:25.461Z,96760.69
2023-04-15T01:28:52.700Z,96760.59
2023-04-15T01:31:20.389Z,96760.75
2023-04-15T01:33:47.653Z,96761.19
2023-04-15T01:36:15.166Z,96765.19
2023-04-15T01:38:42.517Z,96764.53
2023-04-15T01:41:10.228Z,96762.31
2023-04-15T01:43:37.850Z,96765.75
2023-04-15T01:46:06.367Z,96767.69
2023-04-15T01:48:34.252Z,96776.19
2023-04-15T01:51:02.424Z,96770.50
2023-04-15T01:53:30.154Z,96777.94
2023-04-15T01:55:57.832Z,96773.69
2023-04-15T01:58:25.212Z,96780.72
2023-04-15T02:00:52.842Z,96788.88
2023-04-15T02:03:20.279Z,96788.88
2023-04-15T02:05:47.998Z,96795.47
2023-04-15T02:08:15.281Z,96788.88
2023-04-15T02:10:42.901Z,96795.41
2023-04-15T02:13:10.998Z,96799.69
2023-04-15T02:15:38.583Z,96802.44
2023-04-15T02:18:05.908Z,96808.75
2023-04-15T02:20:33.596Z,96816.75
2023-04-15T02:23:01.169Z,96820.31
2023-04-15T02:25:28.717Z,96816.47
2023-04-15T02:27:58.361Z,96807.25
2023-04-15T02:30:26.212Z,96814.41
2023-04-15T02:32:53.666Z,96808.94
2023-04-15T02:35:21.553Z,96816.34
2023-04-15T02:37:48.899Z,96816.63
2023-04-15T02:40:16.431Z,96818.97
2023-04-15T02:42:44.480Z,96824.91
2023-04-15T02:45:12.994Z,96822.03
2023-04-15T02:47:44.097Z,96830.41
2023-04-15T02:50:13.673Z,96830.03
2023-04-15T02:52:42.921Z,96830.44
2023-04-15T02:55:10.847Z,96836.78
2023-04-15T02:57:39.341Z,96834.97
2023-04-15T03:00:09.783Z,96844.19
2023-04-15T03:02:41.156Z,96851.06
2023-04-15T03:05:14.278Z,96852.69
2023-04-15T03:07:41.709Z,96857.91
2023-04-15T03:10:10.521Z,96850.09
2023-04-15T03:12:37.823Z,96859.44
2023-04-15T03:15:06.636Z,96849.00
2023-04-15T03:17:33.986Z,96858.88
2023-04-15T03:20:05.281Z,96850.91
2023-04-15T03:22:33.650Z,96866.84
2023-04-15T03:25:01.860Z,96859.56
2023-04-15T03:27:29.164Z,96864.25
2023-04-15T03:29:56.974Z,96859.44
2023-04-15T03:32:24.549Z,96855.31
2023-04-15T03:34:52.172Z,96857.38
2023-04-15T03:37:19.529Z,96870.81
2023-04-15T03:39:47.323Z,96884.44
2023-04-15T03:42:14.594Z,96882.50
2023-04-15T03:44:42.332Z,96889.75
2023-04-15T03:47:09.591Z,96882.19
2023-04-15T03:49:37.716Z,96887.09
2023-04-15T03:52:05.118Z,96886.44
2023-04-15T03:54:32.781Z,96892.06
2023-04-15T03:57:00.028Z,96898.34
2023-04-15T03:59:27.653Z,96901.38
2023-04-15T04:01:54.927Z,96897.81
2023-04-15T04:04:22.686Z,96902.06
2023-04-15T04:06:49.994Z,96897.81
2023-04-15T04:09:17.493Z,96898.66
2023-04-15T04:11:45.725Z,96897.28
2023-04-15T04:14:13.274Z,96898.50
2023-04-15T04:16:40.772Z,96893.03
2023-04-15T04:19:08.679Z,96893.16
2023-04-15T04:21:36.651Z,96895.22
2023-04-15T04:24:04.248Z,96902.22
2023-04-15T04:26:31.465Z,96900.44
2023-04-15T04:28:59.134Z,96905.25
2023-04-15T04:31:27.345Z,96901.56
2023-04-15T04:33:54.881Z,96908.75
2023-04-15T04:36:22.266Z,96916.59
2023-04-15T04:38:49.857Z,96916.16
2023-04-15T04:41:17.808Z,96918.94
2023-04-15T04:43:45.388Z,96920.88
2023-04-15T04:46:12.985Z,96917.06
2023-04-15T04:48:40.721Z,96917.44
2023-04-15T04:51:08.302Z,96914.59
2023-04-15T04:53:37.769Z,96912.78
2023-04-15T04:56:05.317Z,96919.09
2023-04-15T04:58:32.852Z,96925.28
2023-04-15T05:01:00.366Z,96926.78
2023-04-15T05:03:28.146Z,96926.66
2023-04-15T05:05:55.547Z,96934.75
2023-04-15T05:08:23.105Z,96925.66
2023-04-15T05:10:50.510Z,96934.22
2023-04-15T05:13:18.108Z,96941.75
2023-04-15T05:15:45.581Z,96939.66
2023-04-15T05:18:13.324Z,96946.69
2023-04-15T05:20:40.724Z,96939.41
2023-04-15T05:23:08.425Z,96941.16
2023-04-15T05:25:35.806Z,96939.06
2023-04-15T05:28:03.425Z,96938.50
2023-04-15T05:30:30.836Z,96936.16
2023-04-15T05:32:58.487Z,96944.53
2023-04-15T05:35:25.842Z,96948.44
2023-04-15T05:37:53.434Z,96946.75
2023-04-15T05:40:20.860Z,96951.00
2023-04-15T05:42:48.536Z,96953.16
2023-04-15T05:45:15.813Z,96956.84
2023-04-15T05:47:43.533Z,96950.06
2023-04-15T05:50:11.286Z,96947.13
2023-04-15T05:52:39.046Z,96953.03
2023-04-15T05:55:07.013Z,96962.94
2023-04-15T05:57:34.583Z,96952.25
2023-04-15T06:00:01.854Z,96966.25
2023-04-15T06:02:29.459Z,96964.72
2023-04-15T06:04:57.929Z,96974.25
2023-04-15T06:07:25.667Z,96973.50
2023-04-15T06:09:53.015Z,96973.13
2023-04-15T06:12:21.547Z,96979.94
2023-04-15T06:14:48.943Z,96979.31
2023-04-15T06:17:18.551Z,96982.03
2023-04-15T06:19:46.017Z,96976.84
2023-04-15T06:22:13.935Z,96985.03
2023-04-15T06:24:41.588Z,96993.03
2023-04-15T06:27:09.807Z,96991.16
2023-04-15T06:29:37.593Z,96996.06
2023-04-15T06:32:05.426Z,96993.19
2023-04-15T06:34:32.692Z,96988.50
2023-04-15T06:37:01.968Z,96992.03
2023-04-15T06:39:29.939Z,96994.47
2023-04-15T06:41:57.654Z,96995.31
2023-04-15T06:44:24.964Z,96994.13
2023-04-15T06:46:52.538Z,96997.91
2023-04-15T06:49:19.804Z,97002.34
2023-04-15T06:51:47.351Z,97007.34
2023-04-15T06:54:14.724Z,97007.81
2023-04-15T06:56:43.311Z,96999.59
2023-04-15T06:59:10.676Z,97011.53
2023-04-15T07:01:38.347Z,97018.91
2023-04-15T07:04:06.355Z,97016.72
2023-04-15T07:06:33.962Z,97017.38
2023-04-15T07:09:03.566Z,97020.63
2023-04-15T07:11:31.754Z,97022.03
2023-04-15T07:13:59.284Z,97025.47
2023-04-15T07:16:28.584Z,97030.84
2023-04-15T07:18:57.291Z,97021.06
2023-04-15T07:21:25.902Z,97020.88
2023-04-15T07:23:53.394Z,97017.84
2023-04-15T07:26:21.032Z,97018.22
2023-04-15T07:28:49.287Z,97015.84
2023-04-15T07:31:17.611Z,97024.22
2023-04-15T07:33:45.271Z,97021.03
2023-04-15T07:36:13.330Z,97020.91
2023-04-15T07:38:40.718Z,97018.63
2023-04-15T07:41:08.260Z,97017.91
2023-04-15T07:43:35.541Z,97004.94
2023-04-15T07:46:03.109Z,97017.53
2023-04-15T07:48:30.828Z,97018.69
2023-04-15T07:50:59.582Z,97026.47
2023-04-15T07:53:27.143Z,97033.72
2023-04-15T07:55:54.717Z,97024.47
2023-04-15T07:58:21.991Z,97040.25
2023-04-15T08:00:49.519Z,97032.03
2023-04-15T08:03:16.896Z,97033.44
2023-04-15T08:05:45.642Z,97029.22
2023-04-15T08:08:13.021Z,97031.53
2023-04-15T08:10:41.087Z,97025.56
2023-04-15T08:13:08.488Z,97036.69
2023-04-15T08:15:36.113Z,97031.53
2023-04-15T08:18:03.564Z,97022.88
2023-04-15T08:20:31.137Z,97027.41
2023-04-15T08:22:58.397Z,97033.34
2023-04-15T08:25:25.953Z,97029.81
2023-04-15T08:27:55.789Z,97034.75
2023-04-15T08:30:23.855Z,97029.94
2023-04-15T08:32:51.440Z,97026.31
2023-04-15T08:35:19.084Z,97025.38
2023-04-15T08:37:46.378Z,97019.78
2023-04-15T08:40:14.340Z,97028.84
2023-04-15T08:42:49.237Z,97038.97
2023-04-15T08:45:18.779Z,97037.28
2023-04-15T08:47:49.331Z,97034.81
2023-04-15T08:50:18.403Z,97037.75
2023-04-15T08:52:45.761Z,97034.59
2023-04-15T08:55:16.240Z,97046.78
2023-04-15T08:57:43.911Z,97034.28
2023-04-15T09:00:12.578Z,97040.06
2023-04-15T09:02:41.411Z,97041.88
2023-04-15T09:05:09.507Z,97050.34
2023-04-15T09:07:36.901Z,97053.69
2023-04-15T09:10:05.538Z,97055.38
2023-04-15T09:12:36.983Z,97058.13
2023-04-15T09:15:05.272Z,97050.28
2023-04-15T09:17:34.727Z,97042.56
2023-04-15T09:20:11.132Z,97040.16
2023-04-15T09:22:40.862Z,97038.31
2023-04-15T09:25:31.081Z,97042.63
2023-04-15T09:28:02.412Z,97039.91
2023-04-15T09:30:30.663Z,97036.34
2023-04-15T09:33:02.539Z,97042.78
2023-04-15T09:35:30.195Z,97034.53
2023-04-15T09:38:07.628Z,97040.25
2023-04-15T09:40:42.324Z,97038.44
2023-04-15T09:43:13.142Z,97033.78
2023-04-15T09:45:52.757Z,97033.09
2023-04-15T09:48:31.196Z,97022.38
2023-04-15T09:51:00.655Z,97015.03
2023-04-15T09:53:31.764Z,97005.72
2023-04-15T09:56:02.658Z,97002.22
2023-04-15T09:58:35.182Z,96996.25
2023-04-15T10:01:06.510Z,97019.59
2023-04-15T10:03:38.060Z,97018.47
2023-04-15T10:06:06.378Z,97021.44
2023-04-15T10:08:35.177Z,97029.00
2023-04-15T10:11:05.148Z,97033.84
2023-04-15T10:13:35.124Z,97008.28
2023-04-15T10:16:10.964Z,97002.81
2023-04-15T10:18:47.046Z,96997.78
2023-04-15T10:21:18.635Z,96995.03
2023-04-15T10:23:47.372Z,96981.22
2023-04-15T10:26:17.795Z,96988.53
2023-04-15T10:28:47.379Z,96980.84
2023-04-15T10:31:17.149Z,96975.66
2023-04-15T10:33:46.263Z,96982.16
2023-04-15T10:36:15.485Z,96980.28
2023-04-15T10:38:45.906Z,96973.78
2023-04-15T10:41:17.829Z,96985.47
2023-04-15T10:44:09.727Z,96978.47
2023-04-15T10:46:41.800Z,96984.75
2023-04-15T10:49:26.248Z,96984.97
2023-04-15T10:51:59.817Z,96989.19
2023-04-15T10:54:27.446Z,96984.13
2023-04-15T10:57:04.044Z,96978.25
2023-04-15T10:59:32.062Z,96979.66
2023-04-15T11:02:09.190Z,96977.47
2023-04-15T11:05:00.234Z,96988.31
2023-04-15T11:07:42.598Z,96977.63
2023-04-15T11:10:19.150Z,96974.13
2023-04-15T11:12:51.346Z,96984.28
2023-04-15T11:15:41.112Z,96976.91
2023-04-15T11:18:15.550Z,96981.00
2023-04-15T11:20:55.059Z,96989.28
2023-04-15T11:23:30.241Z,96986.81
2023-04-15T11:26:00.051Z,96980.72
2023-04-15T11:28:31.504Z,96987.72
2023-04-15T11:31:07.181Z,96978.97
2023-04-15T11:33:34.840Z,96982.16
2023-04-15T11:36:04.339Z,96988.78
2023-04-15T11:38:32.568Z,96987.59
2023-04-15T11:41:00.005Z,96980.19
2023-04-15T11:43:27.748Z,96984.41
2023-04-15T11:46:01.536Z,96990.91
2023-04-15T11:48:33.061Z,96986.38
2023-04-15T11:51:04.416Z,96992.41
2023-04-15T11:53:47.608Z,96992.13
2023-04-15T11:56:24.069Z,96988.81
2023-04-15T11:58:59.464Z,96990.63
2023-04-15T12:01:39.501Z,96994.25
2023-04-15T12:04:25.362Z,97000.50
2023-04-15T12:06:53.337Z,96993.56
2023-04-15T12:09:21.919Z,96994.28
2023-04-15T12:11:54.220Z,96994.44
2023-04-15T12:14:33.270Z,96995.88
2023-04-15T12:17:03.770Z,97004.13
2023-04-15T12:19:41.781Z,96992.78
2023-04-15T12:22:18.343Z,97006.69
2023-04-15T12:24:48.309Z,97001.72
2023-04-15T12:27:17.531Z,97000.16
2023-04-15T12:29:45.447Z,96999.13
2023-04-15T12:32:19.885Z,96994.66
2023-04-15T12:34:52.803Z,97005.75
2023-04-15T12:37:20.783Z,96999.78
2023-04-15T12:39:50.196Z,97005.91
2023-04-15T12:42:18.825Z,97001.16
2023-04-15T12:44:47.385Z,96998.00
2023-04-15T12:47:15.142Z,97001.59
2023-04-15T12:49:42.816Z,97004.09
2023-04-15T12:52:10.194Z,97002.72
2023-04-15T12:54:37.840Z,96999.28
2023-04-15T12:57:07.305Z,96996.66
2023-04-15T12:59:36.121Z,96996.59
2023-04-15T13:02:04.338Z,96999.50
2023-04-15T13:04:32.339Z,96990.38
2023-04-15T13:06:59.820Z,96986.56
2023-04-15T13:09:27.422Z,96986.91
2023-04-15T13:11:54.991Z,96995.03
2023-04-15T13:14:22.676Z,97003.22
2023-04-15T13:16:50.021Z,96997.31
2023-04-15T13:19:17.754Z,97005.13
2023-04-15T13:21:45.082Z,97004.13
2023-04-15T13:24:12.619Z,97003.69
2023-04-15T13:26:39.952Z,97000.06
2023-04-15T13:29:07.628Z,97000.44
2023-04-15T13:31:34.937Z,97008.78
2023-04-15T13:34:02.784Z,97002.47
2023-04-15T13:36:30.749Z,97002.13
2023-04-15T13:38:58.584Z,97006.06
2023-04-15T13:41:25.998Z,97005.41
2023-04-15T13:43:53.499Z,96999.16
2023-04-15T13:46:20.908Z,97009.44
2023-04-15T13:48:48.496Z,97014.66
2023-04-15T13:51:15.830Z,97016.97
2023-04-15T13:53:43.405Z,97013.94
2023-04-15T13:56:10.906Z,97016.38
2023-04-15T13:58:41.623Z,97014.84
2023-04-15T14:01:09.165Z,97026.41
2023-04-15T14:03:37.320Z,97029.47
2023-04-15T14:06:08.678Z,97024.91
2023-04-15T14:08:36.363Z,97023.19
2023-04-15T14:11:03.950Z,97020.50
2023-04-15T14:13:31.511Z,97016.88
2023-04-15T14:15:58.857Z,97028.16
2023-04-15T14:18:26.537Z,97030.19
2023-04-15T14:20:53.939Z,97026.06
2023-04-15T14:23:21.976Z,97033.03
2023-04-15T14:25:51.728Z,97028.81
2023-04-15T14:28:19.417Z,97033.97
2023-04-15T14:30:46.834Z,97036.31
2023-04-15T14:33:14.540Z,97031.59
2023-04-15T14:35:42.054Z,97038.88
2023-04-15T14:38:11.481Z,97041.94
2023-04-15T14:40:41.320Z,97043.97
2023-04-15T14:43:09.064Z,97040.84
2023-04-15T14:45:39.546Z,97045.69
2023-04-15T14:48:10.486Z,97050.66
2023-04-15T14:50:37.873Z,97048.56
2023-04-15T14:53:05.531Z,97051.28
2023-04-15T14:55:33.512Z,97050.81
2023-04-15T14:58:02.489Z,97062.78
2023-04-15T15:00:30.037Z,97066.66
2023-04-15T15:02:58.634Z,97063.91
2023-04-15T15:05:26.059Z,97067.72
2023-04-15T15:07:53.802Z,97069.59
2023-04-15T15:10:47.949Z,97079.78
2023-04-15T15:13:10.785Z,97078.50
2023-04-15T15:15:39.242Z,97078.53
2023-04-15T15:18:07.083Z,97087.50
2023-04-15T15:20:35.509Z,97086.41
2023-04-15T15:23:03.240Z,97093.03
2023-04-15T15:25:30.518Z,97093.28
2023-04-15T15:27:58.172Z,97087.00
2023-04-15T15:30:25.673Z,97089.94
2023-04-15T15:32:53.368Z,97092.25
2023-04-15T15:35:22.942Z,97097.78
2023-04-15T15:37:51.341Z,97094.31
2023-04-15T15:40:18.726Z,97093.66
2023-04-15T15:42:49.938Z,97095.13
2023-04-15T15:45:17.838Z,97096.66
2023-04-15T15:47:45.467Z,97101.72
2023-04-15T15:50:14.326Z,97111.59
2023-04-15T15:52:42.120Z,97117.56
2023-04-15T15:55:09.670Z,97120.97
2023-04-15T15:57:39.098Z,97122.00
2023-04-15T16:00:12.425Z,97126.31
2023-04-15T16:03:05.284Z,97127.78
2023-04-15T16:05:28.209Z,97129.25
2023-04-15T16:07:55.831Z,97125.78
2023-04-15T16:10:23.111Z,97126.91
2023-04-15T16:12:50.783Z,97132.81
2023-04-15T16:15:18.143Z,97130.00
2023-04-15T16:17:46.002Z,97131.16
2023-04-15T16:20:13.663Z,97135.16
2023-04-15T16:22:41.453Z,97130.53
2023-04-15T16:25:09.314Z,97128.84
2023-04-15T16:27:54.095Z,97129.78
2023-04-15T16:30:25.009Z,97129.94
2023-04-15T16:32:53.546Z,97134.72
2023-04-15T16:35:21.062Z,97139.75
2023-04-15T16:37:48.659Z,97150.97
2023-04-15T16:40:16.365Z,97158.38
2023-04-15T16:42:44.144Z,97170.53
2023-04-15T16:45:11.752Z,97185.56
2023-04-15T16:47:39.725Z,97194.00
2023-04-15T16:50:08.157Z,97204.34
2023-04-15T16:52:36.668Z,97205.03
2023-04-15T16:55:05.322Z,97208.69
2023-04-15T16:58:00.415Z,97226.38
2023-04-15T17:00:20.988Z,97232.53
2023-04-15T17:02:48.802Z,97247.00
2023-04-15T17:05:16.377Z,97249.78
2023-04-15T17:07:44.025Z,97253.81
2023-04-15T17:10:13.866Z,97254.41
2023-04-15T17:12:41.438Z,97254.19
2023-04-15T17:15:09.629Z,97240.06
2023-04-15T17:17:37.177Z,97235.00
2023-04-15T17:20:05.454Z,97212.53
2023-04-15T17:22:33.666Z,97216.72
2023-04-15T17:25:01.089Z,97227.88
2023-04-15T17:27:29.977Z,97237.38
2023-04-15T17:29:57.603Z,97246.19
2023-04-15T17:32:31.858Z,97266.88
2023-04-15T17:34:59.431Z,97267.72
2023-04-15T17:37:27.021Z,97287.84
2023-04-15T17:39:54.398Z,97294.28
2023-04-15T17:42:23.035Z,97308.22
2023-04-15T17:44:50.313Z,97303.66
2023-04-15T17:47:18.087Z,97305.19
2023-04-15T17:49:45.540Z,97315.00
2023-04-15T17:52:14.061Z,97311.81
2023-04-15T17:54:41.413Z,97317.63
2023-04-15T17:57:09.708Z,97317.63
2023-04-15T17:59:37.225Z,97310.16
2023-04-15T18:02:04.998Z,97331.41
2023-04-15T18:04:32.548Z,97333.19
2023-04-15T18:07:00.338Z,97349.34
2023-04-15T18:09:28.122Z,97353.47
2023-04-15T18:11:57.422Z,97356.91
2023-04-15T18:14:34.115Z,97353.47
2023-04-15T18:17:03.402Z,97351.25
2023-04-15T18:19:31.857Z,97350.69
2023-04-15T18:22:03.431Z,97338.72
2023-04-15T18:24:30.950Z,97334.16
2023-04-15T18:26:59.275Z,97343.66
2023-04-15T18:29:26.726Z,97356.47
2023-04-15T18:31:54.798Z,97365.72
2023-04-15T18:34:22.219Z,97380.06
2023-04-15T18:36:49.874Z,97382.97
2023-04-15T18:39:17.332Z,97384.06
2023-04-15T18:41:45.714Z,97393.00
2023-04-15T18:44:13.169Z,97395.09
2023-04-15T18:46:40.974Z,97390.69
2023-04-15T18:49:08.361Z,97389.72
2023-04-15T18:51:36.312Z,97388.88
2023-04-15T18:54:03.686Z,97387.53
2023-04-15T18:56:31.727Z,97386.94
2023-04-15T18:59:10.061Z,97377.16
2023-04-15T19:01:46.780Z,97378.69
2023-04-15T19:04:14.508Z,97389.16
2023-04-15T19:06:42.246Z,97388.06
2023-04-15T19:09:09.591Z,97395.91
2023-04-15T19:11:37.226Z,97395.09
2023-04-15T19:14:04.781Z,97400.31
2023-04-15T19:16:32.489Z,97401.44
2023-04-15T19:18:59.853Z,97405.03
2023-04-15T19:21:28.788Z,97408.03
2023-04-15T19:23:57.887Z,97416.59
2023-04-15T19:26:25.629Z,97410.13
2023-04-15T19:28:58.921Z,97418.41
2023-04-15T19:31:26.714Z,97423.38
2023-04-15T19:33:54.078Z,97421.31
2023-04-15T19:36:21.724Z,97415.53
2023-04-15T19:38:49.043Z,97411.78
2023-04-15T19:41:16.697Z,97401.16
2023-04-15T19:43:44.020Z,97406.50
2023-04-15T19:46:13.461Z,97415.66
2023-04-15T19:48:40.995Z,97423.66
2023-04-15T19:51:08.917Z,97416.91
2023-04-15T19:53:36.509Z,97423.66
2023-04-15T19:56:04.125Z,97428.50
2023-04-15T19:58:32.713Z,97435.97
2023-04-15T20:01:01.476Z,97427.13
2023-04-15T20:03:28.966Z,97433.88
2023-04-15T20:05:56.636Z,97435.53
2023-04-15T20:08:24.057Z,97436.38
2023-04-15T20:10:51.950Z,97437.91
2023-04-15T20:13:19.312Z,97442.06
2023-04-15T20:15:47.528Z,97428.13
2023-04-15T20:18:14.960Z,97429.22
2023-04-15T20:20:42.637Z,97432.66
2023-04-15T20:23:10.079Z,97433.84
2023-04-15T20:25:37.849Z,97437.00
2023-04-15T20:28:05.163Z,97439.19
2023-04-15T20:30:33.022Z,97448.97
2023-04-15T20:33:00.763Z,97446.06
2023-04-15T20:35:31.081Z,97450.72
2023-04-15T20:37:58.877Z,97449.19
2023-04-15T20:40:27.262Z,97446.00
2023-04-15T20:42:54.543Z,97449.59
2023-04-15T20:45:22.359Z,97462.66
2023-04-15T20:47:49.854Z,97459.22
2023-04-15T20:50:17.758Z,97461.97
2023-04-15T20:52:45.045Z,97468.03
2023-04-15T20:55:12.834Z,97465.41
2023-04-15T20:57:40.525Z,97468.13
2023-04-15T21:00:10.961Z,97466.50
2023-04-15T21:02:38.810Z,97481.50
2023-04-15T21:05:07.837Z,97482.59
2023-04-15T21:07:35.391Z,97488.91
2023-04-15T21:10:03.182Z,97488.19
2023-04-15T21:12:30.686Z,97491.78
2023-04-15T21:14:58.358Z,97494.66
2023-04-15T21:17:25.822Z,97493.69
2023-04-15T21:19:53.431Z,97503.19
2023-04-15T21:22:20.759Z,97508.44
2023-04-15T21:24:49.175Z,97499.28
2023-04-15T21:27:16.567Z,97496.19
2023-04-15T21:29:44.283Z,97496.91
2023-04-15T21:32:12.341Z,97507.16
2023-04-15T21:34:40.049Z,97504.84
2023-04-15T21:37:07.874Z,97514.63
2023-04-15T21:39:35.536Z,97513.63
2023-04-15T21:42:02.990Z,97513.53
2023-04-15T21:44:31.426Z,97517.56
2023-04-15T21:46:59.240Z,97505.94
2023-04-15T21:49:26.956Z,97511.56
2023-04-15T21:51:54.234Z,97515.94
2023-04-15T21:54:21.818Z,97512.84
2023-04-15T21:56:50.182Z,97520.09
2023-04-15T21:59:17.876Z,97521.03
2023-04-15T22:01:45.708Z,97527.09
2023-04-15T22:04:13.638Z,97536.91
2023-04-15T22:06:41.013Z,97538.22
2023-04-15T22:09:08.618Z,97543.41
2023-04-15T22:11:36.040Z,97544.16
2023-04-15T22:14:03.840Z,97546.47
2023-04-15T22:16:31.274Z,97540.31
2023-04-15T22:18:58.957Z,97549.06
2023-04-15T22:21:26.864Z,97553.34
2023-04-15T22:24:38.341Z,97552.50
2023-04-15T22:26:41.860Z,97560.66
2023-04-15T22:29:10.133Z,97557.34
2023-04-15T22:31:37.431Z,97558.41
2023-04-15T22:34:05.073Z,97560.91
2023-04-15T22:36:32.378Z,97563.28
2023-04-15T22:38:59.938Z,97575.38
2023-04-15T22:41:27.411Z,97570.03
2023-04-15T22:43:54.874Z,97583.56
2023-04-15T22:46:22.191Z,97586.09
2023-04-15T22:48:49.895Z,97592.97
2023-04-15T22:51:28.019Z,97592.78
2023-04-15T22:53:56.563Z,97593.50
2023-04-15T22:56:24.108Z,97594.56
2023-04-15T22:58:51.820Z,97590.06
2023-04-15T23:01:20.805Z,97599.66
2023-04-15T23:03:56.188Z,97601.94
2023-04-15T23:06:27.201Z,97604.34
2023-04-15T23:08:54.976Z,97601.53
2023-04-15T23:11:22.274Z,97603.91
2023-04-15T23:13:50.780Z,97606.28
2023-04-15T23:16:18.144Z,97601.75
2023-04-15T23:18:45.701Z,97603.22
2023-04-15T23:21:12.881Z,97617.69
2023-04-15T23:23:40.541Z,97615.81
2023-04-15T23:26:07.787Z,97616.63
2023-04-15T23:28:35.340Z,97614.16
2023-04-15T23:31:02.714Z,97621.25
2023-04-15T23:33:30.509Z,97621.38
2023-04-15T23:35:57.805Z,97633.47
2023-04-15T23:38:25.399Z,97636.91
2023-04-15T23:40:52.828Z,97636.78
2023-04-15T23:43:20.391Z,97630.84
2023-04-15T23:45:48.000Z,97637.84
2023-04-15T23:48:15.550Z,97638.78
2023-04-15T23:50:42.884Z,97636.19
2023-04-15T23:53:10.481Z,97636.31
2023-04-15T23:55:37.671Z,97634.53
2023-04-15T23:58:05.220Z,97631.31
